createdAt,value
2023-01-03T00:02:40.372Z,8.75
2023-01-03T00:07:42.006Z,8.57
2023-01-03T00:12:43.534Z,8.54
2023-01-03T00:17:45.715Z,8.43
2023-01-03T00:22:47.363Z,8.32
2023-01-03T00:27:48.933Z,8.23
2023-01-03T00:32:50.671Z,8.22
2023-01-03T00:37:52.221Z,8.19
2023-01-03T00:42:53.782Z,8.32
2023-01-03T00:47:55.294Z,8.56
2023-01-03T00:52:56.800Z,8.93
2023-01-03T00:57:58.402Z,9.17
2023-01-03T01:03:00.089Z,9.16
2023-01-03T01:08:01.774Z,9.16
2023-01-03T01:13:03.376Z,9.13
2023-01-03T01:18:04.885Z,9.43
2023-01-03T01:23:06.391Z,9.49
2023-01-03T01:28:07.926Z,9.71
2023-01-03T01:33:09.504Z,9.80
2023-01-03T01:38:11.091Z,9.97
2023-01-03T01:43:21.499Z,9.74
2023-01-03T01:48:25.380Z,9.67
2023-01-03T01:53:34.495Z,9.80
2023-01-03T01:58:38.548Z,9.75
2023-01-03T02:03:43.156Z,9.78
2023-01-03T02:08:44.833Z,9.77
2023-01-03T02:13:46.382Z,9.62
2023-01-03T02:19:09.055Z,9.54
2023-01-03T02:24:19.521Z,9.47
2023-01-03T02:29:56.320Z,9.49
2023-01-03T02:35:00.692Z,9.38
2023-01-03T02:40:25.230Z,9.45
2023-01-03T02:45:45.942Z,9.19
2023-01-03T02:50:54.796Z,9.10
2023-01-03T02:56:01.399Z,9.01
2023-01-03T03:01:05.894Z,8.89
2023-01-03T03:06:10.216Z,8.87
2023-01-03T03:11:13.121Z,9.01
2023-01-03T03:16:26.008Z,9.06
2023-01-03T03:21:34.384Z,8.92
2023-01-03T03:26:43.670Z,8.92
2023-01-03T03:31:50.977Z,8.96
2023-01-03T03:37:09.722Z,8.94
2023-01-03T03:42:28.137Z,8.98
2023-01-03T03:47:35.614Z,9.05
2023-01-03T03:52:38.721Z,9.13
2023-01-03T03:57:48.999Z,9.23
2023-01-03T04:02:53.872Z,9.19
2023-01-03T04:07:55.588Z,9.12
2023-01-03T04:12:57.155Z,9.04
2023-01-03T04:17:58.872Z,8.92
2023-01-03T04:23:00.481Z,9.09
2023-01-03T04:28:02.017Z,9.05
2023-01-03T04:33:03.630Z,8.67
2023-01-03T04:38:05.853Z,8.20
2023-01-03T04:43:07.624Z,8.25
2023-01-03T04:48:09.221Z,8.39
2023-01-03T04:53:10.808Z,8.52
2023-01-03T04:58:12.390Z,8.58
2023-01-03T05:03:13.969Z,8.54
2023-01-03T05:08:15.524Z,8.57
2023-01-03T05:13:17.051Z,8.45
2023-01-03T05:18:18.783Z,8.41
2023-01-03T05:23:20.301Z,8.67
2023-01-03T05:28:23.528Z,8.67
2023-01-03T05:33:25.626Z,8.61
2023-01-03T05:38:27.134Z,8.62
2023-01-03T05:43:28.703Z,8.68
2023-01-03T05:48:30.258Z,8.67
2023-01-03T05:53:31.786Z,8.48
2023-01-03T05:58:33.504Z,8.28
2023-01-03T06:03:35.068Z,8.03
2023-01-03T06:08:36.612Z,7.73
2023-01-03T06:13:38.447Z,7.59
2023-01-03T06:18:39.959Z,7.35
2023-01-03T06:23:41.620Z,7.27
2023-01-03T06:28:43.209Z,7.03
2023-01-03T06:33:45.059Z,6.94
2023-01-03T06:38:46.949Z,7.20
2023-01-03T06:43:49.193Z,7.12
2023-01-03T06:48:50.946Z,7.12
2023-01-03T06:53:52.541Z,6.98
2023-01-03T06:58:54.087Z,6.89
2023-01-03T07:03:55.694Z,6.70
2023-01-03T07:08:59.172Z,6.59
2023-01-03T07:14:02.089Z,6.65
2023-01-03T07:19:08.841Z,6.72
2023-01-03T07:24:14.437Z,6.60
2023-01-03T07:29:15.981Z,6.47
2023-01-03T07:34:17.631Z,6.37
2023-01-03T07:39:19.192Z,6.58
2023-01-03T07:44:20.840Z,6.62
2023-01-03T07:49:22.389Z,6.97
2023-01-03T07:54:23.972Z,7.24
2023-01-03T07:59:25.515Z,7.58
2023-01-03T08:04:27.136Z,7.77
2023-01-03T08:09:28.685Z,7.96
2023-01-03T08:14:30.226Z,8.27
2023-01-03T08:19:31.837Z,8.29
2023-01-03T08:24:33.375Z,8.42
2023-01-03T08:29:34.889Z,8.56
2023-01-03T08:34:38.756Z,8.61
2023-01-03T08:39:50.476Z,8.67
2023-01-03T08:44:58.102Z,8.82
2023-01-03T08:49:59.972Z,8.86
2023-01-03T08:55:01.627Z,8.68
2023-01-03T09:00:04.476Z,8.66
2023-01-03T09:05:06.823Z,8.66
2023-01-03T09:10:08.865Z,9.38
2023-01-03T09:15:10.945Z,9.39
2023-01-03T09:20:13.397Z,9.31
2023-01-03T09:25:15.538Z,9.47
2023-01-03T09:30:17.624Z,9.79
2023-01-03T09:35:19.290Z,9.74
2023-01-03T09:40:20.860Z,10.19
2023-01-03T09:45:34.271Z,10.26
2023-01-03T09:51:05.979Z,10.94
2023-01-03T09:56:00.626Z,11.22
2023-01-03T10:01:25.636Z,11.66
2023-01-03T10:06:29.851Z,12.56
2023-01-03T10:12:08.731Z,13.23
2023-01-03T10:17:31.470Z,13.99
2023-01-03T10:22:33.180Z,13.68
2023-01-03T10:27:42.406Z,13.68
2023-01-03T10:33:21.384Z,13.15
2023-01-03T10:38:23.249Z,13.09
2023-01-03T10:43:32.176Z,13.10
2023-01-03T10:49:00.096Z,13.18
2023-01-03T10:54:01.181Z,13.29
2023-01-03T10:59:26.629Z,13.14
2023-01-03T11:04:32.184Z,12.89
2023-01-03T11:09:44.437Z,12.69
2023-01-03T11:14:55.181Z,12.86
2023-01-03T11:19:57.457Z,13.02
2023-01-03T11:25:10.911Z,13.00
2023-01-03T11:30:33.391Z,13.18
2023-01-03T11:36:05.947Z,13.42
2023-01-03T11:41:16.457Z,13.53
2023-01-03T11:46:42.879Z,13.42
2023-01-03T11:52:07.001Z,12.96
2023-01-03T11:57:46.663Z,13.79
2023-01-03T12:03:00.510Z,14.32
2023-01-03T12:08:43.394Z,14.34
2023-01-03T12:13:44.883Z,14.26
2023-01-03T12:18:58.248Z,14.01
2023-01-03T12:24:13.881Z,14.43
2023-01-03T12:29:20.664Z,14.09
2023-01-03T12:34:32.598Z,14.63
2023-01-03T12:39:56.820Z,13.75
2023-01-03T12:45:22.997Z,13.19
2023-01-03T12:50:33.219Z,13.29
2023-01-03T12:56:10.275Z,13.42
2023-01-03T13:01:15.331Z,13.61
2023-01-03T13:06:22.009Z,13.64
2023-01-03T13:11:55.958Z,13.61
2023-01-03T13:17:16.412Z,13.62
2023-01-03T13:22:43.062Z,13.85
2023-01-03T13:27:51.235Z,13.87
2023-01-03T13:33:16.199Z,13.60
2023-01-03T13:38:31.286Z,13.62
2023-01-03T13:43:39.712Z,12.95
2023-01-03T13:48:53.794Z,12.51
2023-01-03T13:53:58.077Z,12.75
2023-01-03T13:59:07.872Z,12.60
2023-01-03T14:04:27.749Z,12.55
2023-01-03T14:09:49.009Z,12.41
2023-01-03T14:14:55.859Z,12.43
2023-01-03T14:20:02.825Z,12.44
2023-01-03T14:25:04.738Z,12.77
2023-01-03T14:30:27.894Z,12.66
2023-01-03T14:35:39.293Z,12.68
2023-01-03T14:40:46.551Z,12.31
2023-01-03T14:45:57.014Z,11.94
2023-01-03T14:51:03.420Z,11.73
2023-01-03T14:56:05.366Z,11.59
2023-01-03T15:01:10.937Z,11.50
2023-01-03T15:06:30.665Z,11.27
2023-01-03T15:11:39.399Z,11.25
2023-01-03T15:16:42.639Z,11.10
2023-01-03T15:21:44.502Z,11.05
2023-01-03T15:26:51.780Z,10.88
2023-01-03T15:31:53.372Z,10.84
2023-01-03T15:37:00.950Z,10.78
2023-01-03T15:42:34.979Z,10.61
2023-01-03T15:47:29.592Z,10.58
2023-01-03T15:52:31.350Z,10.44
2023-01-03T15:57:34.114Z,10.34
2023-01-03T16:02:35.761Z,10.25
2023-01-03T16:07:37.454Z,10.03
2023-01-03T16:12:41.053Z,9.67
2023-01-03T16:17:42.681Z,9.58
2023-01-03T16:22:57.664Z,9.36
2023-01-03T16:28:04.658Z,9.36
2023-01-03T16:33:20.838Z,9.46
2023-01-03T16:38:22.438Z,9.28
2023-01-03T16:43:26.091Z,9.17
2023-01-03T16:48:37.951Z,9.04
2023-01-03T16:53:40.835Z,8.77
2023-01-03T16:58:42.790Z,8.59
2023-01-03T17:03:44.456Z,8.48
2023-01-03T17:08:46.034Z,8.22
2023-01-03T17:13:48.236Z,7.95
2023-01-03T17:18:49.989Z,7.73
2023-01-03T17:23:58.575Z,7.48
2023-01-03T17:29:02.420Z,7.52
2023-01-03T17:34:15.800Z,7.58
2023-01-03T17:39:17.897Z,8.00
2023-01-03T17:44:19.520Z,8.21
2023-01-03T17:49:21.031Z,8.17
2023-01-03T17:54:31.166Z,7.94
2023-01-03T17:59:33.072Z,7.81
2023-01-03T18:05:05.689Z,7.72
2023-01-03T18:09:57.003Z,7.62
2023-01-03T18:14:58.518Z,7.76
2023-01-03T18:20:00.865Z,7.76
2023-01-03T18:25:02.501Z,7.81
2023-01-03T18:30:04.575Z,7.90
2023-01-03T18:35:06.486Z,7.98
2023-01-03T18:40:09.242Z,7.89
2023-01-03T18:45:12.517Z,7.83
2023-01-03T18:50:18.953Z,7.77
2023-01-03T18:55:24.574Z,7.62
2023-01-03T19:00:26.658Z,7.44
2023-01-03T19:05:28.364Z,7.36
2023-01-03T19:10:29.915Z,7.37
2023-01-03T19:15:31.572Z,7.51
2023-01-03T19:20:33.211Z,7.65
2023-01-03T19:25:35.241Z,7.82
2023-01-03T19:30:39.781Z,7.92
2023-01-03T19:35:43.202Z,7.96
2023-01-03T19:40:45.226Z,7.96
2023-01-03T19:45:47.411Z,8.40
2023-01-03T19:50:50.417Z,8.66
2023-01-03T19:55:51.978Z,8.75
2023-01-03T20:00:54.329Z,8.71
2023-01-03T20:05:56.615Z,8.63
2023-01-03T20:10:58.238Z,8.59
2023-01-03T20:15:59.851Z,8.54
2023-01-03T20:21:07.295Z,8.51
2023-01-03T20:26:23.584Z,8.51
2023-01-03T20:31:25.872Z,8.63
2023-01-03T20:36:36.036Z,8.61
2023-01-03T20:41:37.586Z,8.47
2023-01-03T20:46:39.547Z,8.24
2023-01-03T20:51:41.191Z,7.67
2023-01-03T20:56:43.171Z,7.49
2023-01-03T21:01:45.756Z,7.38
2023-01-03T21:06:47.448Z,7.30
2023-01-03T21:11:49.045Z,7.21
2023-01-03T21:16:50.595Z,7.15
2023-01-03T21:21:54.093Z,6.82
2023-01-03T21:26:55.650Z,6.69
2023-01-03T21:31:57.215Z,6.77
2023-01-03T21:36:58.811Z,6.74
2023-01-03T21:42:00.396Z,6.88
2023-01-03T21:47:01.924Z,7.02
2023-01-03T21:52:03.494Z,6.94
2023-01-03T21:57:05.079Z,7.15
2023-01-03T22:02:11.936Z,7.43
2023-01-03T22:07:13.803Z,7.43
2023-01-03T22:12:16.545Z,7.83
2023-01-03T22:17:18.212Z,8.62
2023-01-03T22:22:19.880Z,8.68
2023-01-03T22:27:21.414Z,8.46
2023-01-03T22:32:24.396Z,8.29
2023-01-03T22:37:26.105Z,8.21
2023-01-03T22:42:27.873Z,8.26
2023-01-03T22:47:29.402Z,8.32
2023-01-03T22:52:30.966Z,8.34
2023-01-03T22:57:32.574Z,8.35
2023-01-03T23:02:40.883Z,8.42
2023-01-03T23:07:43.244Z,8.46
2023-01-03T23:12:44.806Z,8.11
2023-01-03T23:17:46.383Z,8.33
2023-01-03T23:22:48.451Z,8.53
2023-01-03T23:27:52.038Z,8.50
2023-01-03T23:32:53.750Z,8.59
2023-01-03T23:37:55.284Z,8.79
2023-01-03T23:42:57.543Z,9.12
2023-01-03T23:47:59.128Z,9.27
2023-01-03T23:53:00.636Z,9.45
2023-01-03T23:58:02.229Z,9.39
